createdAt,value
2023-05-02T04:00:30.038Z,16.00
2023-05-02T04:05:29.961Z,28.00
2023-05-02T04:10:29.905Z,28.00
2023-05-02T04:15:36.899Z,56.00
2023-05-02T04:20:29.803Z,64.00
2023-05-02T04:25:29.747Z,88.00
2023-05-02T04:30:29.692Z,140.00
2023-05-02T04:35:29.753Z,224.00
2023-05-02T04:40:29.578Z,260.00
2023-05-02T04:45:29.534Z,292.00
2023-05-02T04:50:29.479Z,288.00
2023-05-02T04:55:29.440Z,268.00
2023-05-02T05:00:29.363Z,320.00
2023-05-02T05:05:29.338Z,344.00
2023-05-02T05:10:29.270Z,408.00
2023-05-02T05:15:29.232Z,360.00
2023-05-02T05:20:29.153Z,424.00
2023-05-02T05:25:29.104Z,560.00
2023-05-02T05:30:29.045Z,624.00
2023-05-02T05:35:28.996Z,516.00
2023-05-02T05:40:28.932Z,616.00
2023-05-02T05:45:28.878Z,456.00
2023-05-02T05:50:28.865Z,440.00
2023-05-02T05:55:28.791Z,344.00
2023-05-02T06:00:28.735Z,640.00
2023-05-02T06:05:28.673Z,1060.00
2023-05-02T06:10:28.635Z,952.00
2023-05-02T06:15:28.583Z,852.00
2023-05-02T06:20:28.556Z,720.00
2023-05-02T06:25:28.454Z,580.00
2023-05-02T06:30:28.428Z,708.00
2023-05-02T06:35:28.372Z,1896.00
2023-05-02T06:40:28.284Z,2300.00
2023-05-02T06:45:28.234Z,860.00
2023-05-02T06:50:28.180Z,1096.00
2023-05-02T06:55:28.421Z,1096.00
2023-05-02T07:00:28.068Z,1692.00
2023-05-02T07:05:28.008Z,2184.00
2023-05-02T07:10:27.981Z,2476.00
2023-05-02T07:15:27.954Z,3016.00
2023-05-02T07:20:27.848Z,4312.00
2023-05-02T07:25:27.802Z,4696.00
2023-05-02T07:30:27.744Z,6832.00
2023-05-02T07:35:27.732Z,5352.00
2023-05-02T07:40:27.641Z,3676.00
2023-05-02T07:45:27.579Z,3240.00
2023-05-02T07:50:27.534Z,2796.00
2023-05-02T07:55:27.497Z,3620.00
2023-05-02T08:00:27.429Z,3640.00
2023-05-02T08:05:27.364Z,2452.00
2023-05-02T08:10:27.311Z,1712.00
2023-05-02T08:15:27.277Z,1312.00
2023-05-02T08:20:27.228Z,1244.00
2023-05-02T08:25:27.148Z,1108.00
2023-05-02T08:30:27.089Z,1788.00
2023-05-02T08:35:27.062Z,2312.00
2023-05-02T08:40:38.266Z,3356.00
2023-05-02T08:45:27.932Z,4388.00
2023-05-02T08:50:26.868Z,3352.00
2023-05-02T08:55:26.891Z,3392.00
2023-05-02T09:00:26.763Z,3880.00
2023-05-02T09:05:26.724Z,4820.00
2023-05-02T09:10:26.652Z,6084.00
2023-05-02T09:15:26.618Z,6492.00
2023-05-02T09:20:26.658Z,6724.00
2023-05-02T09:25:26.486Z,5032.00
2023-05-02T09:30:26.432Z,5308.00
2023-05-02T09:35:26.455Z,5420.00
2023-05-02T09:40:26.350Z,5576.00
2023-05-02T09:45:26.273Z,4380.00
2023-05-02T09:50:26.213Z,4092.00
2023-05-02T09:55:26.299Z,6108.00
2023-05-02T10:00:26.101Z,8664.00
2023-05-02T10:05:26.053Z,10380.00
2023-05-02T10:10:25.995Z,10408.00
2023-05-02T10:15:25.955Z,9940.00
2023-05-02T10:20:26.942Z,11444.00
2023-05-02T10:25:25.826Z,11840.00
2023-05-02T10:30:25.767Z,10668.00
2023-05-02T10:35:25.784Z,10060.00
2023-05-02T10:40:25.659Z,11432.00
2023-05-02T10:45:25.600Z,10136.00
2023-05-02T10:50:26.063Z,7468.00
2023-05-02T10:55:25.522Z,4404.00
2023-05-02T11:00:25.435Z,4388.00
2023-05-02T11:05:25.384Z,6428.00
2023-05-02T11:10:25.325Z,9044.00
2023-05-02T11:15:25.292Z,9728.00
2023-05-02T11:20:25.217Z,8548.00
2023-05-02T11:25:25.158Z,7024.00
2023-05-02T11:30:25.103Z,8836.00
2023-05-02T11:35:25.087Z,10128.00
2023-05-02T11:40:25.002Z,9792.00
2023-05-02T11:45:24.942Z,8040.00
2023-05-02T11:50:24.894Z,5220.00
2023-05-02T11:55:24.853Z,4128.00
2023-05-02T12:00:24.782Z,4636.00
2023-05-02T12:05:24.759Z,6752.00
2023-05-02T12:10:24.663Z,7988.00
2023-05-02T12:15:24.643Z,7308.00
2023-05-02T12:20:24.556Z,8248.00
2023-05-02T12:25:24.507Z,7868.00
2023-05-02T12:30:24.504Z,6256.00
2023-05-02T12:35:24.441Z,7344.00
2023-05-02T12:40:24.340Z,8048.00
2023-05-02T12:45:24.278Z,8144.00
2023-05-02T12:50:24.229Z,8284.00
2023-05-02T12:55:24.224Z,7616.00
2023-05-02T13:00:24.114Z,9208.00
2023-05-02T13:05:24.067Z,8592.00
2023-05-02T13:10:24.006Z,8424.00
2023-05-02T13:15:24.032Z,10416.00
2023-05-02T13:20:23.906Z,9704.00
2023-05-02T13:25:23.837Z,6808.00
2023-05-02T13:30:23.786Z,6952.00
2023-05-02T13:35:23.743Z,9572.00
2023-05-02T13:40:23.672Z,6476.00
2023-05-02T13:45:23.616Z,6260.00
2023-05-02T13:50:23.562Z,7060.00
2023-05-02T13:55:23.543Z,4784.00
2023-05-02T14:00:23.455Z,4724.00
2023-05-02T14:05:23.398Z,6656.00
2023-05-02T14:10:23.347Z,6360.00
2023-05-02T14:15:23.331Z,6516.00
2023-05-02T14:20:23.236Z,6336.00
2023-05-02T14:25:23.177Z,6204.00
2023-05-02T14:30:23.128Z,6256.00
2023-05-02T14:35:23.087Z,6388.00
2023-05-02T14:40:23.034Z,6764.00
2023-05-02T14:45:22.961Z,6324.00
2023-05-02T14:50:22.916Z,6060.00
2023-05-02T14:55:22.877Z,5064.00
2023-05-02T15:00:22.816Z,5920.00
2023-05-02T15:05:22.790Z,3468.00
2023-05-02T15:10:22.691Z,5760.00
2023-05-02T15:15:22.661Z,5652.00
2023-05-02T15:20:22.606Z,5496.00
2023-05-02T15:25:22.528Z,5516.00
2023-05-02T15:30:23.531Z,5444.00
2023-05-02T15:35:22.439Z,5336.00
2023-05-02T15:40:22.368Z,5420.00
2023-05-02T15:45:22.305Z,5380.00
2023-05-02T15:50:22.251Z,5148.00
2023-05-02T15:55:22.228Z,4336.00
2023-05-02T16:00:22.137Z,5144.00
2023-05-02T16:05:22.101Z,4968.00
2023-05-02T16:10:22.013Z,3152.00
2023-05-02T16:15:22.017Z,3716.00
2023-05-02T16:20:21.916Z,3324.00
2023-05-02T16:25:21.860Z,2996.00
2023-05-02T16:30:21.798Z,3120.00
2023-05-02T16:35:21.775Z,4220.00
2023-05-02T16:40:21.695Z,4040.00
2023-05-02T16:45:21.632Z,3780.00
2023-05-02T16:50:21.590Z,3616.00
2023-05-02T16:55:21.571Z,2724.00
2023-05-02T17:00:21.462Z,2548.00
2023-05-02T17:05:21.420Z,3060.00
2023-05-02T17:10:21.366Z,2700.00
2023-05-02T17:15:21.318Z,2268.00
2023-05-02T17:20:21.246Z,2272.00
2023-05-02T17:25:21.192Z,2316.00
2023-05-02T17:30:21.124Z,2252.00
2023-05-02T17:35:21.117Z,2144.00
2023-05-02T17:40:21.029Z,2016.00
2023-05-02T17:45:20.983Z,1944.00
2023-05-02T17:50:20.924Z,1812.00
2023-05-02T17:55:20.917Z,1704.00
2023-05-02T18:00:20.828Z,1572.00
2023-05-02T18:05:20.752Z,1424.00
2023-05-02T18:10:20.714Z,1292.00
2023-05-02T18:15:20.686Z,1160.00
2023-05-02T18:20:20.601Z,1016.00
2023-05-02T18:25:20.572Z,872.00
2023-05-02T18:30:20.499Z,724.00
2023-05-02T18:35:20.448Z,580.00
2023-05-02T18:40:20.393Z,448.00
2023-05-02T18:45:20.328Z,328.00
2023-05-02T18:50:20.261Z,224.00
2023-05-02T18:55:20.615Z,140.00
2023-05-02T19:00:20.274Z,80.00
2023-05-02T19:05:20.102Z,40.00
2023-05-02T19:10:20.065Z,20.00
2023-05-02T19:15:20.051Z,12.00
2023-05-02T19:20:19.970Z,4.00
2023-05-02T19:25:19.889Z,4.00
2023-05-02T19:30:19.857Z,0.00
2023-05-02T19:35:19.822Z,0.00
2023-05-02T19:40:19.725Z,0.00
2023-05-02T19:45:19.685Z,0.00
2023-05-02T19:50:19.647Z,0.00
2023-05-02T19:55:19.582Z,0.00
2023-05-02T20:00:19.521Z,0.00
2023-05-02T20:05:19.468Z,0.00
2023-05-02T20:10:19.404Z,0.00
2023-05-02T20:15:19.404Z,0.00
2023-05-02T20:20:19.320Z,0.00
2023-05-02T20:25:19.235Z,0.00
2023-05-02T20:30:19.192Z,0.00
2023-05-02T20:35:19.156Z,0.00
2023-05-02T20:40:19.082Z,0.00
2023-05-02T20:45:19.034Z,0.00
2023-05-02T20:50:18.985Z,0.00
2023-05-02T20:55:18.954Z,0.00
2023-05-02T21:00:18.864Z,0.00
2023-05-02T21:05:18.820Z,0.00
2023-05-02T21:10:18.776Z,0.00
2023-05-02T21:15:18.720Z,0.00
2023-05-02T21:20:18.666Z,0.00
2023-05-02T21:25:18.605Z,0.00
2023-05-02T21:30:18.535Z,0.00
2023-05-02T21:35:18.510Z,0.00
2023-05-02T21:40:18.450Z,0.00
2023-05-02T21:45:18.372Z,0.00
2023-05-02T21:50:18.330Z,0.00
2023-05-02T21:55:18.289Z,0.00
2023-05-02T22:00:18.208Z,0.00
2023-05-02T22:05:18.192Z,0.00
2023-05-02T22:10:18.128Z,0.00
2023-05-02T22:15:18.072Z,0.00
2023-05-02T22:20:18.002Z,0.00
2023-05-02T22:25:17.945Z,0.00
2023-05-02T22:30:17.880Z,0.00
2023-05-02T22:35:17.862Z,0.00
2023-05-02T22:40:17.787Z,0.00
2023-05-02T22:45:17.731Z,0.00
2023-05-02T22:50:17.681Z,0.00
2023-05-02T22:55:17.672Z,0.00
2023-05-02T23:00:17.602Z,0.00
2023-05-02T23:05:17.522Z,0.00
2023-05-02T23:10:17.457Z,0.00
2023-05-02T23:15:17.421Z,0.00
2023-05-02T23:20:17.354Z,0.00
2023-05-02T23:25:17.316Z,0.00
